Time;durP1;ratioP1;P1;durP2;ratioP2;P2;SDS_P1;SDS_P2;PMS_P1;PMS_P2;Temp;Humidity;BMP_temperature;BMP_pressure;BME280_temperature;BME280_humidity;BME280_pressure;Samples;Min_cycle;Max_cycle;Signal;HPM_P1;HPM_P2
2022/03/12 00:02:13;;;;;;;13.13;7.20;;;;;;;7.01;55.56;162396.91;5057663;28;20060;-63
2022/03/12 00:04:40;;;;;;;11.23;7.82;;;;;;;6.99;55.49;162394.22;5063654;28;20024;-62
2022/03/12 00:07:09;;;;;;;10.57;7.65;;;;;;;7.05;56.01;162409.03;5059971;28;20037;-62
2022/03/12 00:09:34;;;;;;;;;;;;;;;7.03;55.53;162402.31;5060885;28;20071;-63
2022/03/12 00:12:00;;;;;;;10.45;7.90;;;;;;;7.02;56.64;162399.63;5060277;28;19916;-62
2022/03/12 00:14:26;;;;;;;9.45;7.18;;;;;;;7.01;56.38;162396.91;5068443;28;20028;-63
2022/03/12 00:16:52;;;;;;;11.85;9.88;;;;;;;6.99;55.76;162394.22;5062245;28;20092;-63
2022/03/12 00:19:20;;;;;;;13.02;8.85;;;;;;;7.01;55.23;162396.91;5056878;28;20538;-62
2022/03/12 00:21:46;;;;;;;13.70;7.85;;;;;;;7.04;55.69;162406.34;5056074;28;20047;-62
2022/03/12 00:24:14;;;;;;;16.30;9.50;;;;;;;7.06;55.59;162410.38;5063153;28;20099;-63
2022/03/12 00:26:41;;;;;;;9.55;7.88;;;;;;;6.99;55.91;162394.22;5062606;28;20105;-62
2022/03/12 00:29:13;;;;;;;8.57;7.32;;;;;;;6.97;56.07;162388.81;5069177;28;20062;-62
2022/03/12 00:31:39;;;;;;;14.02;8.65;;;;;;;6.98;55.88;162390.19;5061140;28;20044;-62
2022/03/12 00:34:05;;;;;;;11.40;7.18;;;;;;;7.04;56.15;162404.97;5066888;28;20028;-62
2022/03/12 00:36:30;;;;;;;15.40;8.02;;;;;;;7.10;55.92;162422.50;5063995;28;20029;-63
2022/03/12 00:38:55;;;;;;;8.63;7.10;;;;;;;7.09;55.19;162419.81;5060768;28;20404;-63
2022/03/12 00:41:21;;;;;;;11.00;7.85;;;;;;;7.13;55.78;162429.22;5064672;28;20094;-62
2022/03/12 00:43:46;;;;;;;15.38;9.40;;;;;;;7.09;55.39;162418.47;5064883;28;20037;-62
2022/03/12 00:46:13;;;;;;;11.98;7.15;;;;;;;7.19;54.86;162445.38;5063462;28;20017;-62
2022/03/12 00:48:39;;;;;;;10.32;9.23;;;;;;;7.16;56.83;162437.31;5061049;28;20554;-62
2022/03/12 00:51:06;;;;;;;11.05;7.63;;;;;;;7.20;54.72;162448.06;5064904;28;20034;-62
2022/03/12 00:53:31;;;;;;;13.45;8.48;;;;;;;7.35;53.99;162485.78;5066367;28;20040;-62
2022/03/12 00:55:57;;;;;;;9.95;7.80;;;;;;;7.38;54.67;162493.91;5064704;28;20553;-62
2022/03/12 00:58:22;;;;;;;11.15;8.38;;;;;;;7.37;54.38;162491.19;5065534;28;20063;-62
2022/03/12 01:00:48;;;;;;;10.68;8.98;;;;;;;7.40;55.76;162499.28;5062890;28;20017;-63
2022/03/12 01:03:14;;;;;;;12.32;8.55;;;;;;;7.33;55.47;162480.44;5063689;28;20070;-62
2022/03/12 01:05:53;;;;;;;10.75;8.45;;;;;;;7.39;55.89;162496.59;5062181;28;20490;-63
2022/03/12 01:08:20;;;;;;;11.10;9.45;;;;;;;7.32;54.54;162477.75;5060104;28;20064;-63
2022/03/12 01:10:46;;;;;;;47.80;10.20;;;;;;;7.38;56.11;162493.91;5064655;28;20025;-62
2022/03/12 01:13:12;;;;;;;13.00;7.75;;;;;;;7.36;55.63;162488.50;5063605;28;20072;-62
2022/03/12 01:15:39;;;;;;;10.13;7.65;;;;;;;7.31;55.29;162476.38;5061688;28;20124;-61
2022/03/12 01:18:11;;;;;;;9.70;8.77;;;;;;;7.35;55.24;162485.78;5062956;28;20064;-61
2022/03/12 01:20:36;;;;;;;14.15;8.57;;;;;;;7.35;55.08;162485.78;5061941;28;20051;-62
2022/03/12 01:23:02;;;;;;;11.05;7.05;;;;;;;7.35;54.43;162487.16;5061928;28;20573;-61
2022/03/12 01:25:28;;;;;;;11.70;8.65;;;;;;;7.38;54.91;162495.22;5063699;28;20020;-62
2022/03/12 01:27:53;;;;;;;12.65;10.15;;;;;;;7.35;55.11;162485.78;5063235;28;20435;-62
2022/03/12 01:30:26;;;;;;;10.57;8.38;;;;;;;7.38;55.06;162493.91;5063784;28;20029;-62
2022/03/12 01:32:52;;;;;;;12.27;7.85;;;;;;;7.33;54.61;162480.44;5061326;28;20519;-61
2022/03/12 01:35:17;;;;;;;11.98;9.40;;;;;;;7.41;55.17;162502.00;5066356;28;20044;-62
2022/03/12 01:37:42;;;;;;;11.85;8.05;;;;;;;7.44;55.34;162510.06;5061231;28;20055;-62
2022/03/12 01:40:09;;;;;;;11.95;9.00;;;;;;;7.36;55.31;162488.50;5063995;28;20460;-62
2022/03/12 01:42:34;;;;;;;12.55;8.65;;;;;;;7.38;55.42;162493.91;5062257;28;20049;-62
2022/03/12 01:44:59;;;;;;;11.63;7.50;;;;;;;7.34;55.92;162483.09;5061926;28;20361;-62
2022/03/12 01:47:25;;;;;;;10.07;7.60;;;;;;;7.29;55.60;162471.00;5061780;28;20170;-62
2022/03/12 01:49:52;;;;;;;11.20;8.50;;;;;;;7.29;55.82;162472.34;5063098;28;20033;-62
2022/03/12 01:52:18;;;;;;;10.90;8.32;;;;;;;7.33;55.27;162481.75;5059242;28;20563;-62
2022/03/12 01:54:44;;;;;;;10.50;7.55;;;;;;;7.35;55.90;162485.78;5063682;28;20500;-62
2022/03/12 01:57:10;;;;;;;11.23;8.35;;;;;;;7.31;55.59;162476.38;5062837;28;20083;-62
2022/03/12 01:59:36;;;;;;;10.95;9.57;;;;;;;7.31;54.70;162476.38;5063153;28;20629;-62
2022/03/12 02:02:03;;;;;;;11.45;8.27;;;;;;;7.35;56.35;162485.78;5059291;28;20083;-62
2022/03/12 02:04:29;;;;;;;15.93;10.95;;;;;;;7.40;56.10;162499.28;5064494;28;20024;-62
2022/03/12 02:06:58;;;;;;;11.13;8.10;;;;;;;7.37;55.02;162491.19;5066816;28;20127;-62
2022/03/12 02:09:23;;;;;;;12.75;7.70;;;;;;;7.37;55.89;162491.19;5060997;28;20642;-62
2022/03/12 02:11:50;;;;;;;9.10;7.53;;;;;;;7.33;56.60;162480.44;5060675;28;20032;-62
2022/03/12 02:14:18;;;;;;;10.10;8.55;;;;;;;7.37;56.43;162491.19;5065990;28;20025;-61
2022/03/12 02:16:56;;;;;;;9.77;6.50;;;;;;;7.34;55.64;162484.47;5059568;28;20057;-62
2022/03/12 02:19:25;;;;;;;11.70;8.77;;;;;;;7.38;55.75;162495.22;5063461;28;20021;-63
2022/03/12 02:22:01;;;;;;;11.45;8.95;;;;;;;7.45;56.67;162512.75;5059844;28;20549;-62
2022/03/12 02:24:29;;;;;;;12.93;9.20;;;;;;;7.38;55.55;162493.91;5062646;28;20025;-62
2022/03/12 02:26:57;;;;;;;13.90;8.63;;;;;;;7.38;55.70;162493.91;5060765;28;20032;-62
2022/03/12 02:29:23;;;;;;;16.13;8.77;;;;;;;7.42;55.55;162504.66;5061756;28;20044;-62
2022/03/12 02:31:57;;;;;;;11.43;9.02;;;;;;;7.41;56.55;162502.00;5059912;28;20036;-62
2022/03/12 02:34:29;;;;;;;16.77;12.43;;;;;;;7.43;56.13;162507.34;5067178;28;20024;-63
2022/03/12 02:36:56;;;;;;;13.80;8.63;;;;;;;7.34;57.01;162484.47;5062200;28;20041;-62
2022/03/12 02:39:21;;;;;;;10.20;7.32;;;;;;;7.33;57.15;162480.44;5062525;28;20067;-62
2022/03/12 02:41:48;;;;;;;12.23;9.43;;;;;;;7.30;57.22;162475.03;5060637;28;20036;-62
2022/03/12 02:44:22;;;;;;;11.80;9.05;;;;;;;7.26;57.32;162464.22;5063734;28;20036;-62
2022/03/12 02:47:22;;;;;;;11.07;8.15;;;;;;;7.17;56.74;162440.03;5059576;28;20450;-62
2022/03/12 02:49:54;;;;;;;13.35;8.65;;;;;;;7.23;56.77;162454.81;5056718;28;20055;-62
2022/03/12 02:52:23;;;;;;;10.60;9.57;;;;;;;7.25;56.86;162461.59;5063923;28;20044;-62
2022/03/12 02:54:50;;;;;;;11.73;9.85;;;;;;;7.23;57.33;162456.19;5071582;28;20048;-62
2022/03/12 02:57:16;;;;;;;14.98;10.10;;;;;;;7.21;57.31;162449.47;5069462;28;20052;-62
2022/03/12 02:59:43;;;;;;;13.35;9.27;;;;;;;7.23;58.17;162456.19;5070961;28;20405;-62
2022/03/12 03:02:11;;;;;;;16.08;8.82;;;;;;;7.24;56.96;162458.88;5069090;28;20075;-62
2022/03/12 03:04:38;;;;;;;16.40;9.02;;;;;;;7.25;57.20;162461.59;5071110;28;20016;-62
2022/03/12 03:07:05;;;;;;;14.52;9.15;;;;;;;7.24;57.38;162457.50;5069139;28;20123;-62
2022/03/12 03:09:30;;;;;;;12.43;8.77;;;;;;;7.29;57.12;162472.34;5071207;28;20519;-62
2022/03/12 03:11:57;;;;;;;15.93;10.02;;;;;;;7.35;57.43;162485.78;5069850;28;20051;-62
2022/03/12 03:14:26;;;;;;;12.77;9.05;;;;;;;7.38;56.98;162495.22;5070363;28;20368;-62
2022/03/12 03:16:56;;;;;;;16.30;9.23;;;;;;;7.42;56.89;162504.66;5070015;28;20036;-62
2022/03/12 03:19:26;;;;;;;12.38;9.88;;;;;;;7.39;57.06;162496.59;5071039;28;20069;-62
2022/03/12 03:21:55;;;;;;;21.60;8.07;;;;;;;7.44;56.93;162510.06;5069648;28;20037;-62
2022/03/12 03:24:21;;;;;;;14.45;8.52;;;;;;;7.45;57.00;162512.75;5070473;28;20066;-62
2022/03/12 03:26:47;;;;;;;15.57;9.45;;;;;;;7.42;58.33;162504.66;5069935;28;20033;-62
2022/03/12 03:29:13;;;;;;;41.13;11.13;;;;;;;7.45;58.06;162512.75;5070223;28;20147;-62
2022/03/12 03:31:39;;;;;;;19.60;9.23;;;;;;;7.51;59.22;162528.91;5069619;28;20036;-63
2022/03/12 03:34:04;;;;;;;9.90;8.95;;;;;;;7.46;58.05;162515.44;5070448;28;20074;-63
2022/03/12 03:36:29;;;;;;;15.18;9.68;;;;;;;7.39;57.29;162496.59;5069451;28;20051;-62
2022/03/12 03:38:55;;;;;;;17.85;9.98;;;;;;;7.42;59.22;162504.66;5071127;28;20032;-62
2022/03/12 03:41:20;;;;;;;15.75;9.13;;;;;;;7.38;58.32;162493.91;5069023;28;20472;-62
2022/03/12 03:43:48;;;;;;;16.88;10.52;;;;;;;7.37;59.65;162491.19;5070259;28;20365;-62
2022/03/12 03:46:17;;;;;;;9.90;8.80;;;;;;;7.34;59.06;162483.09;5069333;28;20062;-62
2022/03/12 03:48:46;;;;;;;18.02;9.43;;;;;;;7.33;58.75;162480.44;5071115;28;20028;-62
2022/03/12 03:51:11;;;;;;;11.00;9.88;;;;;;;7.29;58.83;162472.34;5068984;28;20462;-62
2022/03/12 03:53:37;;;;;;;18.27;9.95;;;;;;;7.30;59.10;162473.66;5070618;28;20020;-62
2022/03/12 03:56:02;;;;;;;11.77;8.68;;;;;;;7.37;58.59;162491.19;5070706;28;20028;-62
2022/03/12 03:58:30;;;;;;;14.93;9.98;;;;;;;7.38;59.69;162493.91;5068421;28;20049;-63
2022/03/12 04:00:58;;;;;;;13.98;9.02;;;;;;;7.39;59.17;162496.59;5071373;28;20127;-60
2022/03/12 04:03:24;;;;;;;13.20;9.98;;;;;;;7.42;59.69;162504.66;5073161;28;20177;-62
2022/03/12 04:05:50;;;;;;;17.38;9.50;;;;;;;7.41;59.44;162502.00;5073579;28;20476;-62
2022/03/12 04:08:16;;;;;;;16.73;9.77;;;;;;;7.33;59.47;162481.75;5072324;28;20051;-62
2022/03/12 04:10:42;;;;;;;11.73;10.25;;;;;;;7.39;60.67;162496.59;5075079;28;20024;-62
2022/03/12 04:13:18;;;;;;;13.50;9.77;;;;;;;7.38;59.92;162493.91;5072328;28;20439;-63
2022/03/12 04:15:44;;;;;;;10.20;9.10;;;;;;;7.45;59.08;162512.75;5074686;28;20024;-62
2022/03/12 04:18:10;;;;;;;13.43;8.52;;;;;;;7.40;59.67;162499.28;5072657;28;20040;-61
2022/03/12 04:20:38;;;;;;;15.13;8.63;;;;;;;7.44;59.69;162510.06;5074097;28;20055;-61
2022/03/12 04:23:04;;;;;;;15.15;9.10;;;;;;;7.52;59.41;162531.59;5072221;28;20049;-61
2022/03/12 04:25:31;;;;;;;14.50;11.15;;;;;;;7.49;59.44;162523.50;5074292;28;20078;-61
2022/03/12 04:27:59;;;;;;;13.32;8.35;;;;;;;7.49;59.84;162523.50;5072717;28;20059;-61
2022/03/12 04:30:25;;;;;;;12.02;8.80;;;;;;;7.54;59.68;162537.00;5073259;28;20036;-61
2022/03/12 04:32:50;;;;;;;10.98;9.90;;;;;;;7.55;59.10;162539.72;5072658;28;20047;-61
2022/03/12 04:35:16;;;;;;;14.85;11.15;;;;;;;7.57;61.34;162543.75;5073673;28;20403;-63
2022/03/12 04:37:42;;;;;;;15.63;10.73;;;;;;;7.65;60.33;162563.94;5073111;28;20083;-62
2022/03/12 04:40:12;;;;;;;13.35;9.02;;;;;;;7.67;59.58;162569.31;5073429;28;20028;-63
2022/03/12 04:42:39;;;;;;;11.60;9.65;;;;;;;7.60;61.34;162553.16;5052182;28;20443;-62
2022/03/12 04:45:08;;;;;;;13.45;8.60;;;;;;;7.65;60.23;162563.94;5056309;28;20032;-62
2022/03/12 04:47:33;;;;;;;;;;;;;;;7.62;61.92;162557.19;5073268;28;20036;-62
2022/03/12 04:49:59;;;;;;;14.55;9.40;;;;;;;7.56;61.88;162542.38;5073286;28;19942;-63
2022/03/12 04:52:24;;;;;;;14.65;11.07;;;;;;;7.55;62.76;162538.34;5072170;28;20037;-63
2022/03/12 04:54:49;;;;;;;16.40;10.98;;;;;;;7.42;62.87;162504.66;5071753;28;20029;-63
2022/03/12 04:57:15;;;;;;;16.38;9.95;;;;;;;7.33;61.99;162480.44;5072174;28;20411;-63
2022/03/12 04:59:40;;;;;;;11.50;9.48;;;;;;;7.29;62.43;162471.00;5073457;28;20106;-62
2022/03/12 05:02:10;;;;;;;18.45;10.27;;;;;;;7.25;61.89;162461.59;5072047;28;20036;-62
2022/03/12 05:04:36;;;;;;;15.05;10.23;;;;;;;7.22;63.84;162453.47;5073673;28;20028;-62
2022/03/12 05:07:06;;;;;;;16.13;11.18;;;;;;;7.08;62.57;162415.78;5073374;28;20578;-62
2022/03/12 05:09:31;;;;;;;13.00;10.05;;;;;;;7.01;62.64;162396.91;5071855;28;20044;-62
2022/03/12 05:12:01;;;;;;;15.55;10.30;;;;;;;6.91;63.61;162372.66;5072673;28;20043;-61
2022/03/12 05:14:26;;;;;;;15.13;9.93;;;;;;;6.73;63.14;162324.22;5070960;28;20039;-62
2022/03/12 05:16:51;;;;;;;14.50;10.23;;;;;;;6.77;64.75;162334.97;5073585;28;20037;-62
2022/03/12 05:19:20;;;;;;;28.40;12.55;;;;;;;6.73;65.02;162324.22;5070850;28;20037;-61
2022/03/12 05:21:45;;;;;;;;;;;;;;;6.80;64.77;162343.06;5073537;28;20029;-61
2022/03/12 05:24:13;;;;;;;12.50;11.00;;;;;;;6.81;66.09;162345.78;5071780;28;19916;-61
2022/03/12 05:26:38;;;;;;;17.80;9.95;;;;;;;6.88;66.39;162364.63;5073213;28;20028;-61
2022/03/12 05:29:03;;;;;;;12.38;11.05;;;;;;;6.90;64.79;162368.66;5071300;28;20091;-61
2022/03/12 05:31:29;;;;;;;13.57;11.43;;;;;;;6.95;66.45;162383.47;5072990;28;20498;-61
2022/03/12 05:33:54;;;;;;;13.13;11.15;;;;;;;6.97;66.63;162388.81;5071120;28;20443;-61
2022/03/12 05:36:19;;;;;;;17.23;11.80;;;;;;;7.05;67.80;162409.03;5072097;28;20028;-61
2022/03/12 05:38:45;;;;;;;18.35;10.32;;;;;;;7.12;66.48;162426.53;5071573;28;20058;-61
2022/03/12 05:41:11;;;;;;;12.23;9.95;;;;;;;7.11;66.76;162423.88;5072574;28;20024;-61
2022/03/12 05:43:46;;;;;;;13.40;10.32;;;;;;;7.08;67.02;162417.09;5070367;28;20060;-62
2022/03/12 05:46:14;;;;;;;16.63;10.65;;;;;;;7.12;66.36;162426.53;5073013;28;20024;-62
2022/03/12 05:48:41;;;;;;;14.75;10.02;;;;;;;7.12;68.05;162426.53;5071128;28;20087;-61
2022/03/12 05:51:09;;;;;;;16.15;10.38;;;;;;;7.09;67.17;162418.47;5072302;28;20475;-61
2022/03/12 05:53:35;;;;;;;16.90;10.32;;;;;;;7.14;66.64;162431.94;5071067;28;20059;-61
2022/03/12 05:56:00;;;;;;;13.48;11.55;;;;;;;7.16;68.43;162437.31;5072028;28;20032;-61
2022/03/12 05:58:26;;;;;;;21.05;13.10;;;;;;;7.09;68.80;162419.81;5069338;28;20090;-61
2022/03/12 06:00:54;;;;;;;13.98;12.07;;;;;;;6.99;67.93;162392.91;5066402;28;20036;-62
2022/03/12 06:03:20;;;;;;;16.77;11.32;;;;;;;6.86;70.07;162359.22;5051055;28;20392;-63
2022/03/12 06:05:46;;;;;;;17.70;13.88;;;;;;;6.65;68.57;162305.38;5052355;28;20404;-57
2022/03/12 06:08:14;;;;;;;16.45;10.68;;;;;;;6.62;69.96;162297.28;5050742;28;20041;-62
2022/03/12 06:10:42;;;;;;;19.95;12.35;;;;;;;6.50;70.63;162264.97;5052081;28;20095;-62
2022/03/12 06:13:10;;;;;;;14.97;11.83;;;;;;;6.40;71.97;162238.03;5051025;28;20044;-62
2022/03/12 06:15:40;;;;;;;17.83;13.00;;;;;;;6.29;72.37;162211.09;5048463;28;21055;-62
2022/03/12 06:18:06;;;;;;;18.45;12.02;;;;;;;6.24;70.74;162197.66;5056892;28;20052;-60
2022/03/12 06:20:35;;;;;;;16.52;13.55;;;;;;;6.24;71.96;162197.66;5072338;28;20047;-60
2022/03/12 06:23:00;;;;;;;;;;;;;;;6.23;71.84;162194.94;5064424;28;20052;-60
2022/03/12 06:25:25;;;;;;;15.97;10.93;;;;;;;6.26;74.93;162203.06;5061353;28;19913;-60
2022/03/12 06:27:54;;;;;;;22.02;13.52;;;;;;;6.23;75.35;162194.94;5062541;28;20037;-60
2022/03/12 06:30:25;;;;;;;28.67;14.23;;;;;;;6.16;75.99;162176.13;5061285;28;20020;-60
2022/03/12 06:32:50;;;;;;;31.83;15.27;;;;;;;6.10;76.19;162161.34;5061473;28;20051;-60
2022/03/12 06:35:17;;;;;;;32.67;16.58;;;;;;;6.07;76.30;162151.94;5062772;28;20020;-60
2022/03/12 06:37:42;;;;;;;25.50;14.75;;;;;;;6.18;79.84;162181.50;5063112;28;20033;-60
2022/03/12 06:40:11;;;;;;;25.42;14.55;;;;;;;6.17;78.69;162178.81;5069400;28;20025;-61
2022/03/12 06:42:39;;;;;;;17.90;12.15;;;;;;;6.20;78.67;162186.91;5065754;28;20036;-61
2022/03/12 06:45:06;;;;;;;18.02;12.88;;;;;;;6.17;79.17;162178.81;5064355;28;20028;-61
2022/03/12 06:47:33;;;;;;;15.65;12.38;;;;;;;6.30;79.36;162213.78;5063670;28;20041;-61
2022/03/12 06:50:00;;;;;;;22.13;14.32;;;;;;;6.47;79.39;162256.88;5057911;28;20025;-61
2022/03/12 06:52:27;;;;;;;16.13;12.70;;;;;;;6.60;83.05;162290.56;5057492;28;20037;-61
2022/03/12 06:54:53;;;;;;;15.05;10.98;;;;;;;6.72;81.85;162322.84;5063138;28;20100;-61
2022/03/12 06:57:20;;;;;;;21.25;12.32;;;;;;;6.86;82.90;162359.22;5060469;28;20028;-61
2022/03/12 06:59:45;;;;;;;14.45;11.35;;;;;;;6.99;81.37;162394.22;5064384;28;20049;-61
2022/03/12 07:02:10;;;;;;;14.75;11.63;;;;;;;7.07;82.61;162413.06;5065400;28;20475;-61
2022/03/12 07:04:37;;;;;;;21.17;12.30;;;;;;;7.27;82.76;162466.94;5066473;28;20052;-61
2022/03/12 07:07:02;;;;;;;26.30;13.77;;;;;;;7.42;85.50;162504.66;5067737;28;20051;-61
2022/03/12 07:09:28;;;;;;;23.45;14.82;;;;;;;7.54;83.62;162537.00;5064917;28;20047;-62
2022/03/12 07:11:58;;;;;;;27.73;14.15;;;;;;;7.71;82.31;162580.09;5065486;28;20024;-62
2022/03/12 07:14:24;;;;;;;20.92;13.18;;;;;;;7.87;84.64;162623.22;5062429;28;20135;-61
2022/03/12 07:16:50;;;;;;;25.02;18.52;;;;;;;7.96;84.06;162646.16;5066192;28;20098;-58
2022/03/12 07:19:15;;;;;;;26.70;18.65;;;;;;;8.08;85.47;162677.09;5061764;28;20138;-57
2022/03/12 07:21:41;;;;;;;33.03;18.42;;;;;;;8.16;87.00;162697.34;5063228;28;20356;-57
2022/03/12 07:24:06;;;;;;;21.92;16.20;;;;;;;8.29;85.04;162731.03;5062407;28;20044;-58
2022/03/12 07:26:32;;;;;;;18.65;13.20;;;;;;;8.34;88.36;162745.84;5062941;28;20410;-58
2022/03/12 07:28:58;;;;;;;20.13;14.98;;;;;;;8.52;87.74;162791.72;5064130;28;20419;-57
2022/03/12 07:31:24;;;;;;;19.85;11.95;;;;;;;8.66;90.81;162828.16;5059884;28;20388;-57
2022/03/12 07:33:49;;;;;;;17.92;12.45;;;;;;;8.79;89.06;162863.19;5065790;28;20013;-58
2022/03/12 07:36:15;;;;;;;12.38;10.82;;;;;;;8.85;90.39;162879.38;5059975;28;20078;-58
2022/03/12 07:38:40;;;;;;;12.43;10.13;;;;;;;8.92;87.89;162895.53;5063154;28;20476;-57
2022/03/12 07:41:05;;;;;;;18.23;12.45;;;;;;;8.97;90.81;162909.06;5065000;28;20040;-58
2022/03/12 07:43:31;;;;;;;19.00;12.90;;;;;;;8.97;92.17;162909.06;5062729;28;20041;-58
2022/03/12 07:45:57;;;;;;;17.33;12.10;;;;;;;9.11;96.54;162946.81;5067569;28;20033;-57
2022/03/12 07:48:22;;;;;;;15.60;12.80;;;;;;;9.09;97.52;162941.41;5061161;28;20373;-57
2022/03/12 07:50:48;;;;;;;17.27;13.00;;;;;;;9.18;97.38;162965.69;5067636;28;20036;-57
2022/03/12 07:53:13;;;;;;;13.57;11.02;;;;;;;9.35;98.72;163010.19;5058890;28;20040;-57
2022/03/12 07:55:40;;;;;;;16.60;11.88;;;;;;;9.47;98.95;163041.22;5062184;28;20021;-58
2022/03/12 07:58:05;;;;;;;15.70;12.38;;;;;;;9.71;97.73;163103.25;5064105;28;20079;-58
2022/03/12 08:00:31;;;;;;;19.02;12.00;;;;;;;9.87;100.00;163143.69;5066466;28;20036;-58
2022/03/12 08:02:57;;;;;;;14.45;11.98;;;;;;;10.18;98.84;163224.66;5064684;28;20068;-58
2022/03/12 08:05:25;;;;;;;16.25;12.02;;;;;;;10.28;96.98;163251.66;5063086;28;20037;-57
2022/03/12 08:07:54;;;;;;;20.50;13.25;;;;;;;10.74;98.84;163373.22;5060460;28;20136;-57
2022/03/12 08:10:19;;;;;;;13.18;11.60;;;;;;;11.32;95.87;163524.41;5064550;28;20452;-58
2022/03/12 08:12:46;;;;;;;18.67;12.65;;;;;;;11.65;95.21;163610.88;5062658;28;20044;-57
2022/03/12 08:15:12;;;;;;;13.55;11.10;;;;;;;11.74;91.83;163635.16;5065908;28;20020;-58
2022/03/12 08:17:38;;;;;;;15.85;10.75;;;;;;;11.88;90.63;163671.63;5059781;28;20043;-57
2022/03/12 08:20:06;;;;;;;16.05;10.18;;;;;;;12.08;92.27;163723.00;5061974;28;20173;-58
2022/03/12 08:22:32;;;;;;;12.73;10.57;;;;;;;11.96;93.99;163691.88;5066291;28;20040;-58
2022/03/12 08:24:57;;;;;;;12.27;10.02;;;;;;;11.80;94.50;163648.69;5068476;28;20029;-57
2022/03/12 08:27:23;;;;;;;18.23;10.40;;;;;;;11.75;97.54;163637.84;5068456;28;20040;-58
2022/03/12 08:29:48;;;;;;;14.93;10.15;;;;;;;11.99;96.93;163698.72;5069713;28;20035;-57
2022/03/12 08:32:13;;;;;;;17.02;11.23;;;;;;;11.94;96.58;163686.50;5052611;28;20424;-58
2022/03/12 08:34:40;;;;;;;13.75;9.57;;;;;;;11.98;95.65;163697.34;5049944;28;20079;-58
2022/03/12 08:37:06;;;;;;;16.73;12.15;;;;;;;11.97;98.38;163694.63;5055790;28;20040;-58
2022/03/12 08:39:32;;;;;;;15.68;9.50;;;;;;;12.16;100.00;163743.31;5069826;28;20418;-58
2022/03/12 08:41:57;;;;;;;12.88;10.98;;;;;;;12.32;100.00;163786.50;5068305;28;20045;-57
2022/03/12 08:44:23;;;;;;;12.80;9.93;;;;;;;12.29;100.00;163778.41;5061513;28;20111;-58
2022/03/12 08:46:48;;;;;;;13.80;10.35;;;;;;;12.14;100.00;163739.22;5068097;28;20396;-58
2022/03/12 08:49:14;;;;;;;17.90;10.95;;;;;;;11.63;100.00;163604.06;5065218;28;20037;-58
2022/03/12 08:51:41;;;;;;;11.55;8.38;;;;;;;11.31;100.00;163521.72;5049654;28;20488;-58
2022/03/12 08:54:07;;;;;;;11.23;9.95;;;;;;;11.32;100.00;163524.41;5063338;28;20025;-58
2022/03/12 08:56:33;;;;;;;11.30;10.10;;;;;;;11.30;100.00;163519.00;5072094;28;20047;-57
2022/03/12 08:58:58;;;;;;;13.80;11.00;;;;;;;11.40;100.00;163544.66;5072977;28;20040;-57
2022/03/12 09:01:25;;;;;;;12.13;10.27;;;;;;;11.36;100.00;163535.19;5061079;28;20033;-58
2022/03/12 09:03:50;;;;;;;12.70;10.20;;;;;;;11.53;100.00;163579.81;5055556;28;20033;-58
2022/03/12 09:06:17;;;;;;;15.63;10.55;;;;;;;11.63;100.00;163605.47;5071262;28;20041;-57
2022/03/12 09:08:43;;;;;;;11.05;9.60;;;;;;;11.82;100.00;163654.06;5072972;28;20833;-58
2022/03/12 09:11:08;;;;;;;14.55;10.35;;;;;;;12.16;100.00;163744.63;5064846;28;20060;-57
2022/03/12 09:13:34;;;;;;;14.50;9.77;;;;;;;12.43;100.00;163813.53;5051727;28;20037;-57
2022/03/12 09:15:59;;;;;;;12.93;9.45;;;;;;;12.68;100.00;163881.13;5052747;28;20032;-58
2022/03/12 09:18:26;;;;;;;11.27;9.55;;;;;;;12.84;100.00;163923.03;5061436;28;20580;-58
2022/03/12 09:20:52;;;;;;;10.00;8.93;;;;;;;12.97;100.00;163956.81;5065300;28;20028;-57
2022/03/12 09:23:19;;;;;;;13.45;11.02;;;;;;;12.88;100.00;163932.47;5054261;28;20036;-58
2022/03/12 09:25:45;;;;;;;12.45;10.60;;;;;;;13.20;100.00;164016.31;5056473;28;20028;-57
2022/03/12 09:28:12;;;;;;;9.57;8.43;;;;;;;13.56;100.00;164109.63;5068816;28;20050;-58
2022/03/12 09:30:37;;;;;;;16.70;9.57;;;;;;;13.62;100.00;164127.22;5056189;28;20068;-58
2022/03/12 09:33:04;;;;;;;16.02;11.43;;;;;;;13.67;100.00;164138.00;5051052;28;20037;-58
2022/03/12 09:35:29;;;;;;;10.57;8.75;;;;;;;13.74;100.00;164156.94;5060793;28;20038;-57
2022/03/12 09:37:55;;;;;;;12.45;8.85;;;;;;;13.40;100.00;164067.72;5070691;28;20040;-57
2022/03/12 09:40:22;;;;;;;13.57;10.25;;;;;;;13.36;100.00;164056.88;5063828;28;20487;-58
2022/03/12 09:42:47;;;;;;;10.82;9.60;;;;;;;13.62;100.00;164125.88;5071216;28;20040;-58
2022/03/12 09:45:13;;;;;;;11.65;9.98;;;;;;;13.81;100.00;164175.94;5072345;28;20541;-58
2022/03/12 09:47:39;;;;;;;10.77;8.80;;;;;;;13.81;100.00;164175.94;5058521;28;20040;-58
2022/03/12 09:50:05;;;;;;;11.63;8.05;;;;;;;14.07;100.00;164243.53;5072292;28;20384;-58
2022/03/12 09:52:31;;;;;;;10.20;8.23;;;;;;;13.94;100.00;164211.09;5053052;28;20052;-57
2022/03/12 09:54:57;;;;;;;10.45;7.70;;;;;;;13.84;100.00;164184.00;5072208;28;20158;-58
2022/03/12 09:57:22;;;;;;;10.45;6.75;;;;;;;13.52;100.00;164098.81;5070260;28;20056;-58
2022/03/12 09:59:48;;;;;;;15.18;9.88;;;;;;;12.82;100.00;163916.28;5070736;28;20059;-58
2022/03/12 10:02:13;;;;;;;15.73;8.93;;;;;;;12.86;100.00;163927.06;5046311;28;20052;-59
2022/03/12 10:04:39;;;;;;;12.65;7.93;;;;;;;13.21;100.00;164019.03;5033582;28;20017;-58
2022/03/12 10:07:06;;;;;;;9.98;8.00;;;;;;;13.75;100.00;164161.03;5034968;28;20040;-57
2022/03/12 10:09:32;;;;;;;10.27;6.57;;;;;;;14.17;100.00;164270.59;5058999;28;20458;-58
2022/03/12 10:11:58;;;;;;;8.73;6.85;;;;;;;14.27;100.00;164297.63;5050686;28;20041;-58
2022/03/12 10:14:24;;;;;;;8.90;7.63;;;;;;;13.89;100.00;164196.19;5051845;28;20176;-58
2022/03/12 10:16:50;;;;;;;10.60;7.07;;;;;;;13.42;100.00;164073.13;5049941;28;20039;-58
2022/03/12 10:19:15;;;;;;;13.60;7.20;;;;;;;13.32;100.00;164048.75;5053278;28;20108;-58
2022/03/12 10:21:42;;;;;;;9.90;7.55;;;;;;;13.10;100.00;163989.25;5051116;28;20047;-58
2022/03/12 10:24:11;;;;;;;9.07;7.93;;;;;;;13.20;100.00;164014.94;5060971;28;20415;-58
2022/03/12 10:26:38;;;;;;;12.32;7.40;;;;;;;13.26;100.00;164031.16;5052084;28;20036;-58
2022/03/12 10:29:04;;;;;;;11.32;8.32;;;;;;;13.28;100.00;164037.94;5052024;28;20029;-58
2022/03/12 10:31:30;;;;;;;9.52;8.45;;;;;;;13.42;100.00;164073.13;5058442;28;21721;-58
2022/03/12 10:34:25;;;;;;;10.30;8.75;;;;;;;13.42;100.00;164073.13;5056848;28;20430;-58
2022/03/12 10:36:57;;;;;;;10.75;7.85;;;;;;;13.24;100.00;164027.09;5045059;28;20065;-58
2022/03/12 10:39:33;;;;;;;10.55;7.88;;;;;;;13.01;100.00;163967.63;5051535;28;20388;-58
2022/03/12 10:42:05;;;;;;;11.77;8.85;;;;;;;13.02;100.00;163970.31;5062635;28;20052;-58
2022/03/12 10:44:41;;;;;;;13.30;8.88;;;;;;;12.99;100.00;163960.88;5071011;28;20025;-58
2022/03/12 10:47:23;;;;;;;11.73;8.65;;;;;;;13.02;100.00;163970.31;5060895;28;20098;-59
2022/03/12 10:49:58;;;;;;;16.15;8.40;;;;;;;12.99;100.00;163962.19;5051611;28;20021;-58
2022/03/12 10:52:27;;;;;;;10.15;9.02;;;;;;;13.08;100.00;163985.22;5049206;28;20099;-58
2022/03/12 10:54:53;;;;;;;10.65;8.70;;;;;;;13.10;100.00;163989.25;5031633;28;20026;-58
2022/03/12 10:57:19;;;;;;;11.02;7.90;;;;;;;13.08;100.00;163983.81;5045693;28;20806;-59
2022/03/12 10:59:45;;;;;;;15.27;9.57;;;;;;;13.17;100.00;164008.19;5061055;28;20052;-59
2022/03/12 11:02:10;;;;;;;13.85;8.73;;;;;;;13.23;100.00;164024.38;5057421;28;20057;-59
2022/03/12 11:04:36;;;;;;;12.02;9.23;;;;;;;13.23;100.00;164024.38;5071235;28;20025;-59
2022/03/12 11:07:24;;;;;;;11.10;8.35;;;;;;;13.42;100.00;164073.13;5068263;28;20090;-59
2022/03/12 11:09:50;;;;;;;15.53;10.33;;;;;;;13.33;100.00;164050.06;5070947;28;20463;-58
2022/03/12 11:12:36;;;;;;;14.98;8.27;;;;;;;13.18;100.00;164010.88;5069311;28;20056;-58
2022/03/12 11:15:16;;;;;;;12.15;9.05;;;;;;;13.18;100.00;164012.22;5070291;28;20078;-59
2022/03/12 11:17:45;;;;;;;10.25;8.63;;;;;;;13.44;100.00;164078.56;5069490;28;20495;-58
2022/03/12 11:20:17;;;;;;;10.73;8.85;;;;;;;13.61;100.00;164124.50;5070468;28;20051;-59